sensor_id;sensor_type;location;lat;lon;timestamp;pressure;altitude;pressure_sealevel;temperature;humidity
17593;BME280;8915;51.760;14.300;2023-09-19T00:00:30;100178.63;;;16.91;87.03
17593;BME280;8915;51.760;14.300;2023-09-19T00:02:57;100175.22;;;16.90;87.67
17593;BME280;8915;51.760;14.300;2023-09-19T00:05:25;100181.72;;;16.89;87.91
17593;BME280;8915;51.760;14.300;2023-09-19T00:07:54;100175.59;;;16.89;88.57
17593;BME280;8915;51.760;14.300;2023-09-19T00:10:22;100181.72;;;16.89;88.19
17593;BME280;8915;51.760;14.300;2023-09-19T00:12:49;100181.72;;;16.89;88.19
17593;BME280;8915;51.760;14.300;2023-09-19T00:15:16;100184.38;;;16.89;88.45
17593;BME280;8915;51.760;14.300;2023-09-19T00:17:44;100175.59;;;16.89;88.79
17593;BME280;8915;51.760;14.300;2023-09-19T00:20:11;100185.91;;;16.90;88.87
17593;BME280;8915;51.760;14.300;2023-09-19T00:22:40;100182.09;;;16.91;89.59
17593;BME280;8915;51.760;14.300;2023-09-19T00:25:08;100192.38;;;16.89;88.93
17593;BME280;8915;51.760;14.300;2023-09-19T00:27:36;100185.91;;;16.90;88.99
17593;BME280;8915;51.760;14.300;2023-09-19T00:30:07;100196.94;;;16.92;89.48
17593;BME280;8915;51.760;14.300;2023-09-19T00:32:39;100197.31;;;16.91;89.09
17593;BME280;8915;51.760;14.300;2023-09-19T00:35:06;100193.91;;;16.90;88.90
17593;BME280;8915;51.760;14.300;2023-09-19T00:37:33;100184.38;;;16.89;88.53
17593;BME280;8915;51.760;14.300;2023-09-19T00:40:00;100188.94;;;16.89;89.07
17593;BME280;8915;51.760;14.300;2023-09-19T00:42:30;100180.16;;;16.88;88.42
17593;BME280;8915;51.760;14.300;2023-09-19T00:44:58;100181.28;;;16.87;89.11
17593;BME280;8915;51.760;14.300;2023-09-19T00:47:28;100189.31;;;16.87;88.91
17593;BME280;8915;51.760;14.300;2023-09-19T00:49:55;100186.63;;;16.84;88.71
17593;BME280;8915;51.760;14.300;2023-09-19T00:52:22;100180.53;;;16.83;88.62
17593;BME280;8915;51.760;14.300;2023-09-19T00:54:50;100176.72;;;16.81;88.13
17593;BME280;8915;51.760;14.300;2023-09-19T00:57:18;100179.75;;;16.79;88.27
17593;BME280;8915;51.760;14.300;2023-09-19T00:59:50;100177.09;;;16.76;88.37
17593;BME280;8915;51.760;14.300;2023-09-19T01:02:18;100175.53;;;16.75;88.45
17593;BME280;8915;51.760;14.300;2023-09-19T01:04:46;100177.06;;;16.72;88.64
17593;BME280;8915;51.760;14.300;2023-09-19T01:07:12;100175.16;;;16.69;88.51
17593;BME280;8915;51.760;14.300;2023-09-19T01:09:40;100167.53;;;16.68;88.80
17593;BME280;8915;51.760;14.300;2023-09-19T01:12:08;100158.38;;;16.65;88.76
17593;BME280;8915;51.760;14.300;2023-09-19T01:14:44;100156.06;;;16.64;88.86
17593;BME280;8915;51.760;14.300;2023-09-19T01:17:25;100149.59;;;16.61;88.62
17593;BME280;8915;51.760;14.300;2023-09-19T01:20:19;100152.63;;;16.60;88.83
17593;BME280;8915;51.760;14.300;2023-09-19T01:22:57;100154.91;;;16.58;89.09
17593;BME280;8915;51.760;14.300;2023-09-19T01:26:04;100150.72;;;16.57;88.86
17593;BME280;8915;51.760;14.300;2023-09-19T01:28:42;100157.56;;;16.54;88.70
17593;BME280;8915;51.760;14.300;2023-09-19T01:31:14;100157.94;;;16.53;88.38
17593;BME280;8915;51.760;14.300;2023-09-19T01:33:54;100153.38;;;16.50;89.40
17593;BME280;8915;51.760;14.300;2023-09-19T01:36:24;100147.28;;;16.49;89.04
17593;BME280;8915;51.760;14.300;2023-09-19T01:38:51;100155.63;;;16.48;89.31
17593;BME280;8915;51.760;14.300;2023-09-19T01:41:23;100161.34;;;16.46;89.04
17593;BME280;8915;51.760;14.300;2023-09-19T01:43:52;100160.59;;;16.46;89.80
17593;BME280;8915;51.760;14.300;2023-09-19T01:46:24;100160.59;;;16.46;90.23
17593;BME280;8915;51.760;14.300;2023-09-19T01:48:58;100151.06;;;16.45;90.14
17593;BME280;8915;51.760;14.300;2023-09-19T01:51:34;100158.28;;;16.44;90.32
17593;BME280;8915;51.760;14.300;2023-09-19T01:54:07;100159.81;;;16.45;90.24
17593;BME280;8915;51.760;14.300;2023-09-19T01:56:37;100151.06;;;16.45;90.61
17593;BME280;8915;51.760;14.300;2023-09-19T01:59:08;100153.72;;;16.45;89.99
17593;BME280;8915;51.760;14.300;2023-09-19T02:01:39;100161.72;;;16.45;90.53
17593;BME280;8915;51.760;14.300;2023-09-19T02:04:07;100164.41;;;16.45;90.51
17593;BME280;8915;51.760;14.300;2023-09-19T02:06:34;100167.06;;;16.45;90.03
17593;BME280;8915;51.760;14.300;2023-09-19T02:09:00;100167.06;;;16.45;89.84
17593;BME280;8915;51.760;14.300;2023-09-19T02:11:28;100170.09;;;16.43;89.90
17593;BME280;8915;51.760;14.300;2023-09-19T02:13:54;100168.19;;;16.44;90.20
17593;BME280;8915;51.760;14.300;2023-09-19T02:16:21;100170.09;;;16.43;90.00
17593;BME280;8915;51.760;14.300;2023-09-19T02:18:49;100176.16;;;16.44;89.80
17593;BME280;8915;51.760;14.300;2023-09-19T02:21:16;100175.44;;;16.43;89.79
17593;BME280;8915;51.760;14.300;2023-09-19T02:23:43;100175.06;;;16.45;90.06
17593;BME280;8915;51.760;14.300;2023-09-19T02:26:11;100174.28;;;16.44;89.64
17593;BME280;8915;51.760;14.300;2023-09-19T02:28:40;100174.66;;;16.43;90.12
17593;BME280;8915;51.760;14.300;2023-09-19T02:31:08;100183.41;;;16.43;89.81
17593;BME280;8915;51.760;14.300;2023-09-19T02:33:34;100176.94;;;16.41;90.17
17593;BME280;8915;51.760;14.300;2023-09-19T02:36:03;100183.00;;;16.41;90.00
17593;BME280;8915;51.760;14.300;2023-09-19T02:38:30;100170.81;;;16.40;89.75
17593;BME280;8915;51.760;14.300;2023-09-19T02:40:56;100171.19;;;16.39;89.83
17593;BME280;8915;51.760;14.300;2023-09-19T02:43:23;100172.31;;;16.38;89.92
17593;BME280;8915;51.760;14.300;2023-09-19T02:45:49;100164.69;;;16.36;89.65
17593;BME280;8915;51.760;14.300;2023-09-19T02:48:18;100170.41;;;16.35;90.17
17593;BME280;8915;51.760;14.300;2023-09-19T02:50:45;100173.44;;;16.33;89.95
17593;BME280;8915;51.760;14.300;2023-09-19T02:53:13;100169.63;;;16.34;90.33
17593;BME280;8915;51.760;14.300;2023-09-19T02:55:40;100163.16;;;16.35;90.28
17593;BME280;8915;51.760;14.300;2023-09-19T02:58:07;100167.75;;;16.35;90.06
17593;BME280;8915;51.760;14.300;2023-09-19T03:00:36;100178.41;;;16.35;90.02
17593;BME280;8915;51.760;14.300;2023-09-19T03:03:03;100181.81;;;16.35;89.87
17593;BME280;8915;51.760;14.300;2023-09-19T03:05:32;100176.84;;;16.34;89.71
17593;BME280;8915;51.760;14.300;2023-09-19T03:07:58;100180.28;;;16.34;89.87
17593;BME280;8915;51.760;14.300;2023-09-19T03:10:28;100189.44;;;16.33;90.33
17593;BME280;8915;51.760;14.300;2023-09-19T03:12:57;100178.41;;;16.35;90.59
17593;BME280;8915;51.760;14.300;2023-09-19T03:15:25;100186.00;;;16.36;90.27
17593;BME280;8915;51.760;14.300;2023-09-19T03:17:52;100185.25;;;16.36;90.20
17593;BME280;8915;51.760;14.300;2023-09-19T03:20:21;100186.00;;;16.36;89.99
17593;BME280;8915;51.760;14.300;2023-09-19T03:22:48;100194.78;;;16.37;90.30
17593;BME280;8915;51.760;14.300;2023-09-19T03:25:16;100194.78;;;16.37;90.24
17593;BME280;8915;51.760;14.300;2023-09-19T03:27:48;100191.75;;;16.38;90.20
17593;BME280;8915;51.760;14.300;2023-09-19T03:30:15;100199.72;;;16.38;90.29
17593;BME280;8915;51.760;14.300;2023-09-19T03:32:45;100199.41;;;16.40;90.54
17593;BME280;8915;51.760;14.300;2023-09-19T03:35:15;100197.47;;;16.40;90.31
17593;BME280;8915;51.760;14.300;2023-09-19T03:37:42;100202.44;;;16.42;90.08
17593;BME280;8915;51.760;14.300;2023-09-19T03:40:09;100198.63;;;16.43;90.65
17593;BME280;8915;51.760;14.300;2023-09-19T03:42:38;100206.25;;;16.44;90.17
17593;BME280;8915;51.760;14.300;2023-09-19T03:45:07;100199.03;;;16.45;90.01
17593;BME280;8915;51.760;14.300;2023-09-19T03:47:37;100207.03;;;16.45;90.33
17593;BME280;8915;51.760;14.300;2023-09-19T03:50:04;100213.13;;;16.45;90.33
17593;BME280;8915;51.760;14.300;2023-09-19T03:52:32;100208.56;;;16.46;90.27
17593;BME280;8915;51.760;14.300;2023-09-19T03:54:58;100206.63;;;16.46;90.67
17593;BME280;8915;51.760;14.300;2023-09-19T03:57:25;100216.94;;;16.48;90.37
17593;BME280;8915;51.760;14.300;2023-09-19T03:59:51;100220.38;;;16.48;90.18
17593;BME280;8915;51.760;14.300;2023-09-19T04:02:19;100224.56;;;16.49;90.53
17593;BME280;8915;51.760;14.300;2023-09-19T04:04:49;100224.19;;;16.51;89.89
17593;BME280;8915;51.760;14.300;2023-09-19T04:07:15;100231.81;;;16.52;89.88
17593;BME280;8915;51.760;14.300;2023-09-19T04:09:42;100228.03;;;16.53;90.33
17593;BME280;8915;51.760;14.300;2023-09-19T04:12:08;100231.84;;;16.56;90.10
17593;BME280;8915;51.760;14.300;2023-09-19T04:14:34;100236.78;;;16.57;90.32
17593;BME280;8915;51.760;14.300;2023-09-19T04:17:01;100243.66;;;16.58;90.18
17593;BME280;8915;51.760;14.300;2023-09-19T04:19:29;100237.19;;;16.59;89.80
17593;BME280;8915;51.760;14.300;2023-09-19T04:21:55;100234.88;;;16.58;89.97
17593;BME280;8915;51.760;14.300;2023-09-19T04:24:21;100234.88;;;16.58;89.77
17593;BME280;8915;51.760;14.300;2023-09-19T04:26:48;100234.13;;;16.57;89.58
17593;BME280;8915;51.760;14.300;2023-09-19T04:29:14;100227.25;;;16.56;89.50
17593;BME280;8915;51.760;14.300;2023-09-19T04:31:40;100224.59;;;16.56;89.49
17593;BME280;8915;51.760;14.300;2023-09-19T04:34:09;100225.72;;;16.55;89.40
17593;BME280;8915;51.760;14.300;2023-09-19T04:36:36;100231.44;;;16.54;89.52
17593;BME280;8915;51.760;14.300;2023-09-19T04:39:03;100232.22;;;16.54;89.21
17593;BME280;8915;51.760;14.300;2023-09-19T04:41:31;100240.56;;;16.53;89.48
17593;BME280;8915;51.760;14.300;2023-09-19T04:43:57;100235.22;;;16.49;89.35
17593;BME280;8915;51.760;14.300;2023-09-19T04:46:24;100244.38;;;16.48;89.36
17593;BME280;8915;51.760;14.300;2023-09-19T04:48:50;100256.16;;;16.47;89.75
17593;BME280;8915;51.760;14.300;2023-09-19T04:51:16;100246.63;;;16.46;89.61
17593;BME280;8915;51.760;14.300;2023-09-19T04:53:45;100249.28;;;16.46;89.81
17593;BME280;8915;51.760;14.300;2023-09-19T04:56:12;100255.41;;;16.47;89.50
17593;BME280;8915;51.760;14.300;2023-09-19T04:58:38;100253.09;;;16.45;89.75
17593;BME280;8915;51.760;14.300;2023-09-19T05:01:04;100258.41;;;16.45;89.65
17593;BME280;8915;51.760;14.300;2023-09-19T05:03:32;100256.16;;;16.47;89.62
17593;BME280;8915;51.760;14.300;2023-09-19T05:05:59;100263.03;;;16.48;89.51
17593;BME280;8915;51.760;14.300;2023-09-19T05:08:25;100266.44;;;16.49;89.42
17593;BME280;8915;51.760;14.300;2023-09-19T05:10:53;100271.03;;;16.48;89.52
17593;BME280;8915;51.760;14.300;2023-09-19T05:13:21;100271.75;;;16.49;89.55
17593;BME280;8915;51.760;14.300;2023-09-19T05:15:48;100276.34;;;16.48;89.36
17593;BME280;8915;51.760;14.300;2023-09-19T05:18:15;100269.50;;;16.51;89.68
17593;BME280;8915;51.760;14.300;2023-09-19T05:20:41;100266.47;;;16.52;89.59
17593;BME280;8915;51.760;14.300;2023-09-19T05:23:09;100276.38;;;16.52;89.36
17593;BME280;8915;51.760;14.300;2023-09-19T05:25:38;100279.41;;;16.54;89.47
17593;BME280;8915;51.760;14.300;2023-09-19T05:28:06;100279.41;;;16.54;88.97
17593;BME280;8915;51.760;14.300;2023-09-19T05:30:34;100289.72;;;16.55;89.60
17593;BME280;8915;51.760;14.300;2023-09-19T05:33:01;100287.44;;;16.57;89.21
17593;BME280;8915;51.760;14.300;2023-09-19T05:35:29;100292.75;;;16.57;89.50
17593;BME280;8915;51.760;14.300;2023-09-19T05:37:56;100303.47;;;16.61;89.17
17593;BME280;8915;51.760;14.300;2023-09-19T05:40:23;100305.75;;;16.62;89.35
17593;BME280;8915;51.760;14.300;2023-09-19T05:42:50;100300.81;;;16.64;89.23
17593;BME280;8915;51.760;14.300;2023-09-19T05:45:18;100310.72;;;16.67;89.32
17593;BME280;8915;51.760;14.300;2023-09-19T05:47:47;100304.28;;;16.68;89.14
17593;BME280;8915;51.760;14.300;2023-09-19T05:50:15;100309.25;;;16.73;88.85
17593;BME280;8915;51.760;14.300;2023-09-19T05:52:41;100309.63;;;16.75;88.70
17593;BME280;8915;51.760;14.300;2023-09-19T05:55:09;100323.41;;;16.81;88.65
17593;BME280;8915;51.760;14.300;2023-09-19T05:57:36;100324.16;;;16.85;88.38
17593;BME280;8915;51.760;14.300;2023-09-19T06:00:05;100328.00;;;16.91;87.96
17593;BME280;8915;51.760;14.300;2023-09-19T06:02:38;100336.44;;;16.96;87.57
17593;BME280;8915;51.760;14.300;2023-09-19T06:05:06;100334.19;;;17.02;87.91
17593;BME280;8915;51.760;14.300;2023-09-19T06:07:35;100338.00;;;17.04;87.69
17593;BME280;8915;51.760;14.300;2023-09-19T06:10:02;100347.53;;;17.09;87.31
17593;BME280;8915;51.760;14.300;2023-09-19T06:12:31;100338.41;;;17.13;87.38
17593;BME280;8915;51.760;14.300;2023-09-19T06:14:58;100353.69;;;17.20;86.28
17593;BME280;8915;51.760;14.300;2023-09-19T06:17:24;100356.00;;;17.25;86.34
17593;BME280;8915;51.760;14.300;2023-09-19T06:19:54;100354.88;;;17.29;86.33
17593;BME280;8915;51.760;14.300;2023-09-19T06:22:22;100365.19;;;17.34;86.10
17593;BME280;8915;51.760;14.300;2023-09-19T06:24:49;100366.00;;;17.38;86.35
17593;BME280;8915;51.760;14.300;2023-09-19T06:27:15;100370.22;;;17.43;86.12
17593;BME280;8915;51.760;14.300;2023-09-19T06:29:42;100370.97;;;17.47;86.18
17593;BME280;8915;51.760;14.300;2023-09-19T06:32:08;100378.63;;;17.52;85.65
17593;BME280;8915;51.760;14.300;2023-09-19T06:34:35;100374.06;;;17.56;85.50
17593;BME280;8915;51.760;14.300;2023-09-19T06:37:04;100375.22;;;17.58;84.95
17593;BME280;8915;51.760;14.300;2023-09-19T06:39:31;100378.28;;;17.60;84.78
17593;BME280;8915;51.760;14.300;2023-09-19T06:41:58;100388.22;;;17.63;84.44
17593;BME280;8915;51.760;14.300;2023-09-19T06:44:26;100387.47;;;17.66;84.65
17593;BME280;8915;51.760;14.300;2023-09-19T06:46:55;100382.50;;;17.68;84.45
17593;BME280;8915;51.760;14.300;2023-09-19T06:49:21;100391.69;;;17.71;84.15
17593;BME280;8915;51.760;14.300;2023-09-19T06:51:47;100396.66;;;17.72;83.49
17593;BME280;8915;51.760;14.300;2023-09-19T06:54:16;100411.53;;;17.77;83.78
17593;BME280;8915;51.760;14.300;2023-09-19T06:56:43;100408.88;;;17.80;83.55
17593;BME280;8915;51.760;14.300;2023-09-19T06:59:09;100408.88;;;17.84;83.31
17593;BME280;8915;51.760;14.300;2023-09-19T07:01:39;100412.69;;;17.86;82.59
17593;BME280;8915;51.760;14.300;2023-09-19T07:04:06;100418.06;;;17.90;82.30
17593;BME280;8915;51.760;14.300;2023-09-19T07:06:33;100423.03;;;17.95;81.81
17593;BME280;8915;51.760;14.300;2023-09-19T07:08:59;100431.81;;;17.99;82.99
17593;BME280;8915;51.760;14.300;2023-09-19T07:11:27;100433.38;;;18.03;82.10
17593;BME280;8915;51.760;14.300;2023-09-19T07:13:56;100432.22;;;18.08;81.97
17593;BME280;8915;51.760;14.300;2023-09-19T07:16:23;100434.91;;;18.15;82.17
17593;BME280;8915;51.760;14.300;2023-09-19T07:18:54;100440.66;;;18.20;82.03
17593;BME280;8915;51.760;14.300;2023-09-19T07:21:21;100440.66;;;18.27;81.24
17593;BME280;8915;51.760;14.300;2023-09-19T07:23:48;100448.72;;;18.34;80.21
17593;BME280;8915;51.760;14.300;2023-09-19T07:26:15;100452.56;;;18.40;79.40
17593;BME280;8915;51.760;14.300;2023-09-19T07:28:42;100457.91;;;18.47;78.57
17593;BME280;8915;51.760;14.300;2023-09-19T07:31:09;100463.66;;;18.53;78.99
17593;BME280;8915;51.760;14.300;2023-09-19T07:33:35;100459.06;;;18.60;79.27
17593;BME280;8915;51.760;14.300;2023-09-19T07:36:02;100463.66;;;18.67;79.56
17593;BME280;8915;51.760;14.300;2023-09-19T07:38:28;100469.00;;;18.74;77.77
17593;BME280;8915;51.760;14.300;2023-09-19T07:41:00;100470.94;;;18.80;76.10
17593;BME280;8915;51.760;14.300;2023-09-19T07:43:27;100475.50;;;18.87;76.55
17593;BME280;8915;51.760;14.300;2023-09-19T07:45:55;100471.31;;;18.93;75.31
17593;BME280;8915;51.760;14.300;2023-09-19T07:48:21;100477.00;;;18.98;74.98
17593;BME280;8915;51.760;14.300;2023-09-19T07:50:49;100483.88;;;19.03;75.21
17593;BME280;8915;51.760;14.300;2023-09-19T07:53:16;100477.41;;;19.04;73.70
17593;BME280;8915;51.760;14.300;2023-09-19T07:55:43;100479.69;;;19.09;72.95
17593;BME280;8915;51.760;14.300;2023-09-19T07:58:13;100482.75;;;19.11;72.83
17593;BME280;8915;51.760;14.300;2023-09-19T08:00:41;100480.44;;;19.13;73.37
17593;BME280;8915;51.760;14.300;2023-09-19T08:03:09;100485.81;;;19.16;72.52
17593;BME280;8915;51.760;14.300;2023-09-19T08:05:40;100478.16;;;19.22;72.33
17593;BME280;8915;51.760;14.300;2023-09-19T08:08:08;100495.34;;;19.28;72.61
17593;BME280;8915;51.760;14.300;2023-09-19T08:10:34;100489.25;;;19.31;70.47
17593;BME280;8915;51.760;14.300;2023-09-19T08:13:05;100494.59;;;19.34;70.43
17593;BME280;8915;51.760;14.300;2023-09-19T08:15:32;100498.41;;;19.40;71.63
17593;BME280;8915;51.760;14.300;2023-09-19T08:17:59;100494.94;;;19.47;73.04
17593;BME280;8915;51.760;14.300;2023-09-19T08:20:26;100507.56;;;19.53;70.70
17593;BME280;8915;51.760;14.300;2023-09-19T08:22:53;100511.00;;;19.57;71.56
17593;BME280;8915;51.760;14.300;2023-09-19T08:25:21;100511.72;;;19.61;71.10
17593;BME280;8915;51.760;14.300;2023-09-19T08:27:48;100516.69;;;19.66;69.33
17593;BME280;8915;51.760;14.300;2023-09-19T08:30:16;100517.44;;;19.74;68.85
17593;BME280;8915;51.760;14.300;2023-09-19T08:32:45;100510.91;;;19.82;68.60
17593;BME280;8915;51.760;14.300;2023-09-19T08:35:13;100520.84;;;19.92;68.26
17593;BME280;8915;51.760;14.300;2023-09-19T08:37:41;100528.84;;;19.99;69.72
17593;BME280;8915;51.760;14.300;2023-09-19T08:40:09;100523.47;;;19.99;63.82
17593;BME280;8915;51.760;14.300;2023-09-19T08:42:48;100526.16;;;19.99;64.94
17593;BME280;8915;51.760;14.300;2023-09-19T08:45:16;100535.34;;;19.98;63.00
17593;BME280;8915;51.760;14.300;2023-09-19T08:47:46;100537.25;;;20.08;66.03
17593;BME280;8915;51.760;14.300;2023-09-19T08:50:19;100525.34;;;20.16;65.87
17593;BME280;8915;51.760;14.300;2023-09-19T08:52:48;100521.13;;;20.18;64.55
17593;BME280;8915;51.760;14.300;2023-09-19T08:55:19;100524.53;;;20.22;64.82
17593;BME280;8915;51.760;14.300;2023-09-19T08:57:49;100526.84;;;20.24;65.02
17593;BME280;8915;51.760;14.300;2023-09-19T09:00:16;100523.78;;;20.25;66.43
17593;BME280;8915;51.760;14.300;2023-09-19T09:02:45;100524.91;;;20.24;63.34
17593;BME280;8915;51.760;14.300;2023-09-19T09:05:13;100528.34;;;20.28;66.32
17593;BME280;8915;51.760;14.300;2023-09-19T09:07:42;100522.97;;;20.28;63.02
17593;BME280;8915;51.760;14.300;2023-09-19T09:10:11;100537.13;;;20.32;63.35
17593;BME280;8915;51.760;14.300;2023-09-19T09:12:38;100528.72;;;20.34;63.40
17593;BME280;8915;51.760;14.300;2023-09-19T09:15:05;100528.31;;;20.32;63.70
17593;BME280;8915;51.760;14.300;2023-09-19T09:17:33;100531.81;;;20.29;61.23
17593;BME280;8915;51.760;14.300;2023-09-19T09:20:00;100532.19;;;20.27;59.60
17593;BME280;8915;51.760;14.300;2023-09-19T09:22:26;100528.38;;;20.25;58.95
17593;BME280;8915;51.760;14.300;2023-09-19T09:24:53;100537.16;;;20.29;60.91
17593;BME280;8915;51.760;14.300;2023-09-19T09:27:24;100535.63;;;20.31;57.30
17593;BME280;8915;51.760;14.300;2023-09-19T09:29:51;100527.94;;;20.33;60.25
17593;BME280;8915;51.760;14.300;2023-09-19T09:32:21;100529.84;;;20.36;57.87
17593;BME280;8915;51.760;14.300;2023-09-19T09:34:50;100519.88;;;20.40;58.33
17593;BME280;8915;51.760;14.300;2023-09-19T09:37:17;100530.91;;;20.49;58.03
17593;BME280;8915;51.760;14.300;2023-09-19T09:39:54;100534.72;;;20.52;59.63
17593;BME280;8915;51.760;14.300;2023-09-19T09:42:32;100517.84;;;20.55;57.11
17593;BME280;8915;51.760;14.300;2023-09-19T09:45:14;100522.41;;;20.61;60.41
17593;BME280;8915;51.760;14.300;2023-09-19T09:47:41;100527.38;;;20.66;60.69
17593;BME280;8915;51.760;14.300;2023-09-19T09:50:07;100537.69;;;20.71;59.94
17593;BME280;8915;51.760;14.300;2023-09-19T09:52:45;100530.31;;;20.79;60.46
17593;BME280;8915;51.760;14.300;2023-09-19T09:55:12;100529.16;;;20.83;55.33
17593;BME280;8915;51.760;14.300;2023-09-19T09:57:40;100546.00;;;20.87;58.15
17593;BME280;8915;51.760;14.300;2023-09-19T10:00:07;100541.00;;;20.86;62.96
17593;BME280;8915;51.760;14.300;2023-09-19T10:02:45;100547.56;;;20.85;56.86
17593;BME280;8915;51.760;14.300;2023-09-19T10:05:13;100536.00;;;20.88;54.71
17593;BME280;8915;51.760;14.300;2023-09-19T10:07:55;100539.09;;;20.90;54.64
17593;BME280;8915;51.760;14.300;2023-09-19T10:10:30;100539.44;;;20.95;59.78
17593;BME280;8915;51.760;14.300;2023-09-19T10:13:05;100546.31;;;20.96;55.89
17593;BME280;8915;51.760;14.300;2023-09-19T10:15:33;100536.00;;;20.95;54.54
17593;BME280;8915;51.760;14.300;2023-09-19T10:18:01;100550.09;;;21.06;55.21
17593;BME280;8915;51.760;14.300;2023-09-19T10:20:33;100548.94;;;21.07;53.10
17593;BME280;8915;51.760;14.300;2023-09-19T10:23:06;100548.88;;;21.14;55.92
17593;BME280;8915;51.760;14.300;2023-09-19T10:25:39;100548.00;;;21.24;53.32
17593;BME280;8915;51.760;14.300;2023-09-19T10:28:08;100551.72;;;21.40;53.49
17593;BME280;8915;51.760;14.300;2023-09-19T10:30:37;100570.34;;;21.58;53.92
17593;BME280;8915;51.760;14.300;2023-09-19T10:33:07;100550.28;;;21.66;51.18
17593;BME280;8915;51.760;14.300;2023-09-19T10:35:38;100556.78;;;21.72;52.01
17593;BME280;8915;51.760;14.300;2023-09-19T10:38:06;100556.06;;;21.68;52.00
17593;BME280;8915;51.760;14.300;2023-09-19T10:40:34;100565.28;;;21.67;50.08
17593;BME280;8915;51.760;14.300;2023-09-19T10:43:02;100553.06;;;21.59;49.63
17593;BME280;8915;51.760;14.300;2023-09-19T10:45:32;100565.28;;;21.67;55.36
17593;BME280;8915;51.760;14.300;2023-09-19T10:47:59;100555.25;;;21.71;50.16
17593;BME280;8915;51.760;14.300;2023-09-19T10:50:30;100563.22;;;21.81;50.80
17593;BME280;8915;51.760;14.300;2023-09-19T10:53:00;100556.19;;;21.91;51.58
17593;BME280;8915;51.760;14.300;2023-09-19T10:55:33;100553.44;;;21.98;53.05
17593;BME280;8915;51.760;14.300;2023-09-19T10:58:02;100551.81;;;22.04;51.82
17593;BME280;8915;51.760;14.300;2023-09-19T11:00:52;100559.50;;;22.02;50.61
17593;BME280;8915;51.760;14.300;2023-09-19T11:03:20;100559.16;;;22.00;51.47
17593;BME280;8915;51.760;14.300;2023-09-19T11:06:16;100555.25;;;22.04;48.59
17593;BME280;8915;51.760;14.300;2023-09-19T11:09:00;100564.00;;;22.12;49.49
17593;BME280;8915;51.760;14.300;2023-09-19T11:11:45;100565.91;;;22.15;49.34
17593;BME280;8915;51.760;14.300;2023-09-19T11:14:41;100572.88;;;22.09;46.88
17593;BME280;8915;51.760;14.300;2023-09-19T11:17:31;100563.75;;;21.99;51.23
17593;BME280;8915;51.760;14.300;2023-09-19T11:20:22;100563.47;;;21.94;45.61
17593;BME280;8915;51.760;14.300;2023-09-19T11:23:19;100564.13;;;22.01;45.89
17593;BME280;8915;51.760;14.300;2023-09-19T11:25:52;100565.31;;;21.97;44.42
17593;BME280;8915;51.760;14.300;2023-09-19T11:28:31;100561.91;;;21.96;42.66
17593;BME280;8915;51.760;14.300;2023-09-19T11:30:58;100563.06;;;21.95;46.47
17593;BME280;8915;51.760;14.300;2023-09-19T11:33:27;100563.41;;;21.97;44.08
17593;BME280;8915;51.760;14.300;2023-09-19T11:35:59;100556.13;;;21.98;48.12
17593;BME280;8915;51.760;14.300;2023-09-19T11:39:00;100568.44;;;21.95;42.75
17593;BME280;8915;51.760;14.300;2023-09-19T11:41:38;100569.66;;;21.87;43.79
17593;BME280;8915;51.760;14.300;2023-09-19T11:44:36;100571.28;;;21.81;43.73
17593;BME280;8915;51.760;14.300;2023-09-19T11:47:04;100559.00;;;21.80;44.49
17593;BME280;8915;51.760;14.300;2023-09-19T11:49:33;100565.94;;;21.78;42.67
17593;BME280;8915;51.760;14.300;2023-09-19T11:52:03;100561.78;;;21.70;44.91
17593;BME280;8915;51.760;14.300;2023-09-19T11:54:33;100571.34;;;21.74;52.75
17593;BME280;8915;51.760;14.300;2023-09-19T11:57:05;100564.47;;;21.70;43.72
17593;BME280;8915;51.760;14.300;2023-09-19T11:59:32;100564.88;;;21.68;43.27
17593;BME280;8915;51.760;14.300;2023-09-19T12:02:01;100574.47;;;21.69;48.72
17593;BME280;8915;51.760;14.300;2023-09-19T12:04:36;100570.59;;;21.74;45.57
17593;BME280;8915;51.760;14.300;2023-09-19T12:07:04;100574.81;;;21.75;44.59
17593;BME280;8915;51.760;14.300;2023-09-19T12:09:31;100567.81;;;21.81;45.70
17593;BME280;8915;51.760;14.300;2023-09-19T12:11:57;100572.44;;;21.80;45.05
17593;BME280;8915;51.760;14.300;2023-09-19T12:14:24;100580.50;;;21.80;47.55
17593;BME280;8915;51.760;14.300;2023-09-19T12:16:53;100577.44;;;21.78;43.89
17593;BME280;8915;51.760;14.300;2023-09-19T12:19:22;100573.59;;;21.79;42.05
17593;BME280;8915;51.760;14.300;2023-09-19T12:21:57;100576.66;;;21.81;46.22
17593;BME280;8915;51.760;14.300;2023-09-19T12:24:26;100571.25;;;21.85;43.38
17593;BME280;8915;51.760;14.300;2023-09-19T12:26:59;100568.50;;;21.88;43.74
17593;BME280;8915;51.760;14.300;2023-09-19T12:29:29;100558.88;;;21.91;46.51
17593;BME280;8915;51.760;14.300;2023-09-19T12:31:58;100565.75;;;21.95;47.64
17593;BME280;8915;51.760;14.300;2023-09-19T12:34:27;100568.78;;;21.97;43.83
17593;BME280;8915;51.760;14.300;2023-09-19T12:37:08;100563.41;;;21.97;42.96
17593;BME280;8915;51.760;14.300;2023-09-19T12:39:40;100573.00;;;21.98;45.73
17593;BME280;8915;51.760;14.300;2023-09-19T12:42:08;100566.06;;;22.01;47.61
17593;BME280;8915;51.760;14.300;2023-09-19T12:44:36;100565.63;;;22.06;50.67
17593;BME280;8915;51.760;14.300;2023-09-19T12:47:14;100578.28;;;22.05;43.58
17593;BME280;8915;51.760;14.300;2023-09-19T12:50:10;100568.66;;;22.08;48.91
17593;BME280;8915;51.760;14.300;2023-09-19T12:52:45;100577.16;;;22.06;45.20
17593;BME280;8915;51.760;14.300;2023-09-19T12:55:23;100560.63;;;22.04;46.47
17593;BME280;8915;51.760;14.300;2023-09-19T12:58:00;100570.53;;;22.11;43.90
17593;BME280;8915;51.760;14.300;2023-09-19T13:00:32;100567.41;;;22.16;43.27
17593;BME280;8915;51.760;14.300;2023-09-19T13:03:11;100563.16;;;22.18;42.84